sensor_id;sensor_type;location;lat;lon;timestamp;pressure;altitude;pressure_sealevel;temperature;humidity
49461;BME280;35355;49.198;-0.368;2023-04-06T00:00:48;101292.09;;;11.73;63.63
49461;BME280;35355;49.198;-0.368;2023-04-06T00:03:13;101290.19;;;11.74;63.87
49461;BME280;35355;49.198;-0.368;2023-04-06T00:05:38;101288.78;;;11.71;63.75
49461;BME280;35355;49.198;-0.368;2023-04-06T00:08:04;101285.50;;;11.69;63.80
49461;BME280;35355;49.198;-0.368;2023-04-06T00:10:30;101289.56;;;11.67;63.90
49461;BME280;35355;49.198;-0.368;2023-04-06T00:12:55;101285.94;;;11.61;64.35
49461;BME280;35355;49.198;-0.368;2023-04-06T00:15:22;101278.81;;;11.60;64.21
49461;BME280;35355;49.198;-0.368;2023-04-06T00:17:48;101284.78;;;11.57;64.27
49461;BME280;35355;49.198;-0.368;2023-04-06T00:20:14;101275.19;;;11.54;64.75
49461;BME280;35355;49.198;-0.368;2023-04-06T00:22:39;101274.88;;;11.51;64.46
49461;BME280;35355;49.198;-0.368;2023-04-06T00:25:05;101276.78;;;11.50;65.03
49461;BME280;35355;49.198;-0.368;2023-04-06T00:27:31;101273.22;;;11.50;65.10
49461;BME280;35355;49.198;-0.368;2023-04-06T00:29:56;101270.72;;;11.48;65.03
49461;BME280;35355;49.198;-0.368;2023-04-06T00:32:22;101271.00;;;11.47;65.53
49461;BME280;35355;49.198;-0.368;2023-04-06T00:34:47;101264.97;;;11.45;65.20
49461;BME280;35355;49.198;-0.368;2023-04-06T00:37:12;101260.00;;;11.41;65.33
49461;BME280;35355;49.198;-0.368;2023-04-06T00:39:38;101253.41;;;11.37;65.26
49461;BME280;35355;49.198;-0.368;2023-04-06T00:42:11;101258.03;;;11.37;64.84
49461;BME280;35355;49.198;-0.368;2023-04-06T00:44:39;101262.66;;;11.36;65.78
49461;BME280;35355;49.198;-0.368;2023-04-06T00:47:04;101245.13;;;11.32;65.76
49461;BME280;35355;49.198;-0.368;2023-04-06T00:49:30;101245.63;;;11.29;65.92
49461;BME280;35355;49.198;-0.368;2023-04-06T00:51:55;101247.81;;;11.27;65.73
49461;BME280;35355;49.198;-0.368;2023-04-06T00:54:20;101240.38;;;11.22;65.90
49461;BME280;35355;49.198;-0.368;2023-04-06T00:56:47;101234.09;;;11.22;65.71
49461;BME280;35355;49.198;-0.368;2023-04-06T00:59:12;101232.41;;;11.21;66.16
49461;BME280;35355;49.198;-0.368;2023-04-06T01:01:38;101231.56;;;11.20;65.98
49461;BME280;35355;49.198;-0.368;2023-04-06T01:04:03;101225.28;;;11.20;65.87
49461;BME280;35355;49.198;-0.368;2023-04-06T01:06:29;101224.22;;;11.21;66.34
49461;BME280;35355;49.198;-0.368;2023-04-06T01:08:54;101214.63;;;11.18;65.95
49461;BME280;35355;49.198;-0.368;2023-04-06T01:11:20;101222.25;;;11.16;66.10
49461;BME280;35355;49.198;-0.368;2023-04-06T01:13:46;101209.41;;;11.17;66.33
49461;BME280;35355;49.198;-0.368;2023-04-06T01:16:11;101208.84;;;11.15;66.26
49461;BME280;35355;49.198;-0.368;2023-04-06T01:18:37;101207.44;;;11.12;66.03
49461;BME280;35355;49.198;-0.368;2023-04-06T01:21:03;101193.22;;;11.10;65.83
49461;BME280;35355;49.198;-0.368;2023-04-06T01:23:28;101195.06;;;11.04;66.13
49461;BME280;35355;49.198;-0.368;2023-04-06T01:25:53;101193.91;;;11.00;66.14
49461;BME280;35355;49.198;-0.368;2023-04-06T01:28:19;101190.03;;;10.96;66.00
49461;BME280;35355;49.198;-0.368;2023-04-06T01:30:44;101198.22;;;10.96;66.43
49461;BME280;35355;49.198;-0.368;2023-04-06T01:33:09;101195.25;;;10.98;66.63
49461;BME280;35355;49.198;-0.368;2023-04-06T01:35:35;101185.38;;;10.97;66.46
49461;BME280;35355;49.198;-0.368;2023-04-06T01:38:01;101193.28;;;10.93;66.28
49461;BME280;35355;49.198;-0.368;2023-04-06T01:40:27;101190.47;;;10.88;66.58
49461;BME280;35355;49.198;-0.368;2023-04-06T01:42:52;101190.47;;;10.88;66.76
49461;BME280;35355;49.198;-0.368;2023-04-06T01:45:17;101190.47;;;10.88;66.68
49461;BME280;35355;49.198;-0.368;2023-04-06T01:47:43;101188.56;;;10.88;67.06
49461;BME280;35355;49.198;-0.368;2023-04-06T01:50:08;101184.50;;;10.91;67.05
49461;BME280;35355;49.198;-0.368;2023-04-06T01:52:34;101178.53;;;10.94;67.08
49461;BME280;35355;49.198;-0.368;2023-04-06T01:54:59;101180.50;;;10.99;66.71
49461;BME280;35355;49.198;-0.368;2023-04-06T01:57:25;101184.06;;;10.99;67.02
49461;BME280;35355;49.198;-0.368;2023-04-06T01:59:50;101172.56;;;10.97;66.65
49461;BME280;35355;49.198;-0.368;2023-04-06T02:02:16;101178.09;;;11.02;66.71
49461;BME280;35355;49.198;-0.368;2023-04-06T02:04:41;101169.88;;;11.02;66.97
49461;BME280;35355;49.198;-0.368;2023-04-06T02:07:07;101166.09;;;11.03;66.90
49461;BME280;35355;49.198;-0.368;2023-04-06T02:09:32;101166.09;;;11.03;66.74
49461;BME280;35355;49.198;-0.368;2023-04-06T02:11:57;101169.88;;;11.02;67.12
49461;BME280;35355;49.198;-0.368;2023-04-06T02:14:25;101161.69;;;11.02;66.79
49461;BME280;35355;49.198;-0.368;2023-04-06T02:16:51;101162.03;;;11.06;67.01
49461;BME280;35355;49.198;-0.368;2023-04-06T02:19:16;101163.91;;;11.05;67.15
49461;BME280;35355;49.198;-0.368;2023-04-06T02:21:42;101160.09;;;11.06;67.04
49461;BME280;35355;49.198;-0.368;2023-04-06T02:24:07;101158.44;;;11.05;67.01
49461;BME280;35355;49.198;-0.368;2023-04-06T02:26:33;101151.66;;;11.08;67.31
49461;BME280;35355;49.198;-0.368;2023-04-06T02:28:58;101151.16;;;11.11;67.15
49461;BME280;35355;49.198;-0.368;2023-04-06T02:31:23;101154.13;;;11.10;66.77
49461;BME280;35355;49.198;-0.368;2023-04-06T02:33:49;101152.00;;;11.12;67.15
49461;BME280;35355;49.198;-0.368;2023-04-06T02:36:14;101149.00;;;11.13;67.03
49461;BME280;35355;49.198;-0.368;2023-04-06T02:38:39;101146.78;;;11.10;67.09
49461;BME280;35355;49.198;-0.368;2023-04-06T02:41:05;101155.22;;;11.09;67.13
49461;BME280;35355;49.198;-0.368;2023-04-06T02:43:30;101144.78;;;11.05;66.79
49461;BME280;35355;49.198;-0.368;2023-04-06T02:45:56;101145.91;;;11.04;67.41
49461;BME280;35355;49.198;-0.368;2023-04-06T02:48:21;101138.78;;;11.03;67.11
49461;BME280;35355;49.198;-0.368;2023-04-06T02:50:46;101145.91;;;11.04;67.35
49461;BME280;35355;49.198;-0.368;2023-04-06T02:53:12;101135.53;;;11.06;67.30
49461;BME280;35355;49.198;-0.368;2023-04-06T02:55:37;101133.13;;;11.10;67.29
49461;BME280;35355;49.198;-0.368;2023-04-06T02:58:02;101128.72;;;11.09;67.30
49461;BME280;35355;49.198;-0.368;2023-04-06T03:00:28;101139.69;;;11.14;67.20
49461;BME280;35355;49.198;-0.368;2023-04-06T03:02:53;101129.63;;;11.15;67.57
49461;BME280;35355;49.198;-0.368;2023-04-06T03:05:19;101120.31;;;11.16;67.52
49461;BME280;35355;49.198;-0.368;2023-04-06T03:07:44;101119.81;;;11.19;67.42
49461;BME280;35355;49.198;-0.368;2023-04-06T03:10:11;101121.22;;;11.21;67.43
49461;BME280;35355;49.198;-0.368;2023-04-06T03:12:36;101112.19;;;11.21;67.08
49461;BME280;35355;49.198;-0.368;2023-04-06T03:15:02;101119.31;;;11.22;67.23
49461;BME280;35355;49.198;-0.368;2023-04-06T03:17:27;101115.47;;;11.23;67.62
49461;BME280;35355;49.198;-0.368;2023-04-06T03:19:52;101118.81;;;11.25;67.27
49461;BME280;35355;49.198;-0.368;2023-04-06T03:22:19;101113.34;;;11.25;67.40
49461;BME280;35355;49.198;-0.368;2023-04-06T03:24:44;101107.88;;;11.25;67.65
49461;BME280;35355;49.198;-0.368;2023-04-06T03:27:10;101106.22;;;11.24;67.60
49461;BME280;35355;49.198;-0.368;2023-04-06T03:29:35;101105.41;;;11.23;67.75
49461;BME280;35355;49.198;-0.368;2023-04-06T03:32:01;101089.25;;;11.22;68.05
49461;BME280;35355;49.198;-0.368;2023-04-06T03:34:26;101103.78;;;11.28;67.84
49461;BME280;35355;49.198;-0.368;2023-04-06T03:36:51;101104.03;;;11.26;67.61
49461;BME280;35355;49.198;-0.368;2023-04-06T03:39:17;101097.75;;;11.26;67.74
49461;BME280;35355;49.198;-0.368;2023-04-06T03:41:42;101095.28;;;11.24;67.98
49461;BME280;35355;49.198;-0.368;2023-04-06T03:44:09;101096.34;;;11.23;67.76
49461;BME280;35355;49.198;-0.368;2023-04-06T03:46:34;101090.63;;;11.24;68.13
49461;BME280;35355;49.198;-0.368;2023-04-06T03:49:00;101091.75;;;11.23;68.25
49461;BME280;35355;49.198;-0.368;2023-04-06T03:51:25;101088.69;;;11.20;68.08
49461;BME280;35355;49.198;-0.368;2023-04-06T03:53:51;101090.00;;;11.17;67.88
49461;BME280;35355;49.198;-0.368;2023-04-06T03:56:16;101086.91;;;11.09;68.36
49461;BME280;35355;49.198;-0.368;2023-04-06T03:58:42;101078.66;;;11.03;68.18
49461;BME280;35355;49.198;-0.368;2023-04-06T04:01:09;101081.34;;;10.98;68.24
49461;BME280;35355;49.198;-0.368;2023-04-06T04:03:35;101080.22;;;10.94;68.69
49461;BME280;35355;49.198;-0.368;2023-04-06T04:06:00;101075.28;;;10.91;68.50
49461;BME280;35355;49.198;-0.368;2023-04-06T04:08:25;101073.59;;;10.90;68.56
49461;BME280;35355;49.198;-0.368;2023-04-06T04:10:51;101068.06;;;10.85;68.80
49461;BME280;35355;49.198;-0.368;2023-04-06T04:13:16;101072.47;;;10.86;69.06
49461;BME280;35355;49.198;-0.368;2023-04-06T04:15:42;101071.31;;;10.82;68.98
49461;BME280;35355;49.198;-0.368;2023-04-06T04:18:07;101069.34;;;10.77;68.94
49461;BME280;35355;49.198;-0.368;2023-04-06T04:20:32;101065.56;;;10.78;69.28
49461;BME280;35355;49.198;-0.368;2023-04-06T04:22:59;101071.84;;;10.79;69.47
49461;BME280;35355;49.198;-0.368;2023-04-06T04:25:24;101063.91;;;10.77;69.48
49461;BME280;35355;49.198;-0.368;2023-04-06T04:27:50;101068.53;;;10.77;69.27
49461;BME280;35355;49.198;-0.368;2023-04-06T04:30:16;101072.94;;;10.78;69.44
49461;BME280;35355;49.198;-0.368;2023-04-06T04:32:41;101060.34;;;10.77;69.49
49461;BME280;35355;49.198;-0.368;2023-04-06T04:35:07;101070.94;;;10.73;69.56
49461;BME280;35355;49.198;-0.368;2023-04-06T04:37:32;101069.56;;;10.70;69.72
49461;BME280;35355;49.198;-0.368;2023-04-06T04:39:59;101064.09;;;10.70;70.20
49461;BME280;35355;49.198;-0.368;2023-04-06T04:42:25;101064.09;;;10.70;69.74
49461;BME280;35355;49.198;-0.368;2023-04-06T04:44:50;101048.84;;;10.75;69.71
49461;BME280;35355;49.198;-0.368;2023-04-06T04:47:16;101050.50;;;10.76;69.76
49461;BME280;35355;49.198;-0.368;2023-04-06T04:49:41;101053.81;;;10.78;69.61
49461;BME280;35355;49.198;-0.368;2023-04-06T04:52:06;101048.34;;;10.78;69.80
49461;BME280;35355;49.198;-0.368;2023-04-06T04:54:32;101040.97;;;10.78;70.08
49461;BME280;35355;49.198;-0.368;2023-04-06T04:56:57;101046.19;;;10.80;69.68
49461;BME280;35355;49.198;-0.368;2023-04-06T04:59:22;101046.75;;;10.82;69.75
49461;BME280;35355;49.198;-0.368;2023-04-06T05:01:48;101044.00;;;10.82;69.84
49461;BME280;35355;49.198;-0.368;2023-04-06T05:04:13;101043.44;;;10.80;70.03
49461;BME280;35355;49.198;-0.368;2023-04-06T05:06:38;101042.91;;;10.78;69.70
49461;BME280;35355;49.198;-0.368;2023-04-06T05:09:04;101042.91;;;10.78;69.79
49461;BME280;35355;49.198;-0.368;2023-04-06T05:11:30;101045.63;;;10.78;69.91
49461;BME280;35355;49.198;-0.368;2023-04-06T05:13:56;101033.31;;;10.75;70.15
49461;BME280;35355;49.198;-0.368;2023-04-06T05:16:21;101039.56;;;10.76;70.12
49461;BME280;35355;49.198;-0.368;2023-04-06T05:18:47;101029.19;;;10.73;70.07
49461;BME280;35355;49.198;-0.368;2023-04-06T05:21:13;101032.47;;;10.75;70.27
49461;BME280;35355;49.198;-0.368;2023-04-06T05:23:38;101034.13;;;10.76;70.19
49461;BME280;35355;49.198;-0.368;2023-04-06T05:26:04;101025.66;;;10.77;70.31
49461;BME280;35355;49.198;-0.368;2023-04-06T05:28:30;101032.53;;;10.80;70.29
49461;BME280;35355;49.198;-0.368;2023-04-06T05:30:55;101036.91;;;10.81;70.09
49461;BME280;35355;49.198;-0.368;2023-04-06T05:33:22;101036.91;;;10.81;70.12
49461;BME280;35355;49.198;-0.368;2023-04-06T05:35:47;101035.81;;;10.82;70.60
49461;BME280;35355;49.198;-0.368;2023-04-06T05:38:13;101033.09;;;10.82;70.41
49461;BME280;35355;49.198;-0.368;2023-04-06T05:40:38;101046.75;;;10.82;70.19
49461;BME280;35355;49.198;-0.368;2023-04-06T05:43:05;101037.47;;;10.83;70.39
49461;BME280;35355;49.198;-0.368;2023-04-06T05:45:31;101038.56;;;10.82;70.33
49461;BME280;35355;49.198;-0.368;2023-04-06T05:47:57;101043.72;;;10.78;70.15
49461;BME280;35355;49.198;-0.368;2023-04-06T05:50:22;101037.44;;;10.78;70.24
49461;BME280;35355;49.198;-0.368;2023-04-06T05:52:47;101044.53;;;10.79;70.50
49461;BME280;35355;49.198;-0.368;2023-04-06T05:55:13;101040.72;;;10.80;70.34
49461;BME280;35355;49.198;-0.368;2023-04-06T05:57:38;101050.06;;;10.84;70.52
49461;BME280;35355;49.198;-0.368;2023-04-06T06:00:05;101053.94;;;10.88;70.38
49461;BME280;35355;49.198;-0.368;2023-04-06T06:02:31;101052.56;;;10.91;70.82
49461;BME280;35355;49.198;-0.368;2023-04-06T06:04:57;101051.25;;;10.93;70.69
49461;BME280;35355;49.198;-0.368;2023-04-06T06:07:23;101044.13;;;10.92;70.59
49461;BME280;35355;49.198;-0.368;2023-04-06T06:09:48;101040.06;;;10.95;70.80
49461;BME280;35355;49.198;-0.368;2023-04-06T06:12:14;101039.53;;;10.98;70.87
49461;BME280;35355;49.198;-0.368;2023-04-06T06:14:39;101040.13;;;11.00;70.83
49461;BME280;35355;49.198;-0.368;2023-04-06T06:17:05;101032.75;;;11.00;71.01
49461;BME280;35355;49.198;-0.368;2023-04-06T06:19:30;101036.03;;;11.02;71.01
49461;BME280;35355;49.198;-0.368;2023-04-06T06:21:55;101031.16;;;11.04;70.96
49461;BME280;35355;49.198;-0.368;2023-04-06T06:24:21;101031.72;;;11.06;71.29
49461;BME280;35355;49.198;-0.368;2023-04-06T06:26:46;101024.66;;;11.11;71.11
49461;BME280;35355;49.198;-0.368;2023-04-06T06:29:14;101030.69;;;11.13;71.15
49461;BME280;35355;49.198;-0.368;2023-04-06T06:31:39;101038.34;;;11.16;71.09
49461;BME280;35355;49.198;-0.368;2023-04-06T06:34:05;101040.56;;;11.19;71.63
49461;BME280;35355;49.198;-0.368;2023-04-06T06:36:31;101026.66;;;11.20;71.56
49461;BME280;35355;49.198;-0.368;2023-04-06T06:38:57;101025.56;;;11.21;71.63
49461;BME280;35355;49.198;-0.368;2023-04-06T06:41:24;101035.72;;;11.26;71.27
49461;BME280;35355;49.198;-0.368;2023-04-06T06:43:49;101042.31;;;11.30;71.26
49461;BME280;35355;49.198;-0.368;2023-04-06T06:46:14;101045.38;;;11.34;71.31
49461;BME280;35355;49.198;-0.368;2023-04-06T06:48:40;101045.69;;;11.37;71.47
49461;BME280;35355;49.198;-0.368;2023-04-06T06:51:05;101043.56;;;11.45;71.30
49461;BME280;35355;49.198;-0.368;2023-04-06T06:53:31;101052.63;;;11.50;71.41
49461;BME280;35355;49.198;-0.368;2023-04-06T06:55:56;101047.44;;;11.49;70.89
49461;BME280;35355;49.198;-0.368;2023-04-06T06:58:22;101044.69;;;11.49;71.33
49461;BME280;35355;49.198;-0.368;2023-04-06T07:00:47;101044.09;;;11.47;70.87
49461;BME280;35355;49.198;-0.368;2023-04-06T07:03:13;101052.88;;;11.49;71.20
49461;BME280;35355;49.198;-0.368;2023-04-06T07:05:39;101057.56;;;11.53;70.86
49461;BME280;35355;49.198;-0.368;2023-04-06T07:08:10;101051.88;;;11.60;70.77
49461;BME280;35355;49.198;-0.368;2023-04-06T07:10:35;101059.00;;;11.61;71.06
49461;BME280;35355;49.198;-0.368;2023-04-06T07:13:00;101073.22;;;11.63;71.14
49461;BME280;35355;49.198;-0.368;2023-04-06T07:15:26;101070.28;;;11.70;71.24
49461;BME280;35355;49.198;-0.368;2023-04-06T07:17:51;101079.38;;;11.81;71.32
49461;BME280;35355;49.198;-0.368;2023-04-06T07:20:17;101076.72;;;11.91;70.88
49461;BME280;35355;49.198;-0.368;2023-04-06T07:22:43;101081.22;;;12.02;70.86
49461;BME280;35355;49.198;-0.368;2023-04-06T07:25:11;101082.38;;;12.11;70.71
49461;BME280;35355;49.198;-0.368;2023-04-06T07:27:37;101080.28;;;12.24;71.01
49461;BME280;35355;49.198;-0.368;2023-04-06T07:30:03;101079.81;;;12.37;70.51
49461;BME280;35355;49.198;-0.368;2023-04-06T07:32:28;101085.84;;;12.44;70.52
49461;BME280;35355;49.198;-0.368;2023-04-06T07:34:55;101096.03;;;12.49;70.57
49461;BME280;35355;49.198;-0.368;2023-04-06T07:37:21;101093.56;;;12.53;70.40
49461;BME280;35355;49.198;-0.368;2023-04-06T07:39:47;101094.69;;;12.57;70.42
49461;BME280;35355;49.198;-0.368;2023-04-06T07:42:12;101106.50;;;12.62;70.45
49461;BME280;35355;49.198;-0.368;2023-04-06T07:44:38;101110.59;;;12.65;70.13
49461;BME280;35355;49.198;-0.368;2023-04-06T07:47:03;101114.44;;;12.64;69.89
49461;BME280;35355;49.198;-0.368;2023-04-06T07:49:29;101110.56;;;12.60;70.07
49461;BME280;35355;49.198;-0.368;2023-04-06T07:51:54;101112.78;;;12.63;70.30
49461;BME280;35355;49.198;-0.368;2023-04-06T07:54:20;101113.84;;;12.62;70.11
49461;BME280;35355;49.198;-0.368;2023-04-06T07:56:45;101116.06;;;12.60;69.99
49461;BME280;35355;49.198;-0.368;2023-04-06T07:59:10;101119.88;;;12.59;69.77
49461;BME280;35355;49.198;-0.368;2023-04-06T08:01:36;101107.84;;;12.60;70.13
49461;BME280;35355;49.198;-0.368;2023-04-06T08:04:02;101111.38;;;12.60;69.91
49461;BME280;35355;49.198;-0.368;2023-04-06T08:06:27;101126.75;;;12.61;69.72
49461;BME280;35355;49.198;-0.368;2023-04-06T08:08:53;101120.19;;;12.62;69.69
49461;BME280;35355;49.198;-0.368;2023-04-06T08:11:19;101115.28;;;12.70;70.02
49461;BME280;35355;49.198;-0.368;2023-04-06T08:13:45;101115.03;;;12.76;69.95
49461;BME280;35355;49.198;-0.368;2023-04-06T08:16:10;101116.69;;;12.82;69.79
49461;BME280;35355;49.198;-0.368;2023-04-06T08:18:36;101123.28;;;12.87;69.77
49461;BME280;35355;49.198;-0.368;2023-04-06T08:21:01;101128.81;;;12.92;69.50
49461;BME280;35355;49.198;-0.368;2023-04-06T08:23:26;101127.16;;;12.96;69.65
49461;BME280;35355;49.198;-0.368;2023-04-06T08:25:52;101139.81;;;13.02;69.64
49461;BME280;35355;49.198;-0.368;2023-04-06T08:28:19;101138.72;;;13.08;69.66
49461;BME280;35355;49.198;-0.368;2023-04-06T08:30:45;101140.09;;;13.11;69.34
49461;BME280;35355;49.198;-0.368;2023-04-06T08:33:10;101126.16;;;13.12;69.36
49461;BME280;35355;49.198;-0.368;2023-04-06T08:35:36;101129.97;;;13.16;69.40
49461;BME280;35355;49.198;-0.368;2023-04-06T08:38:01;101126.16;;;13.23;69.44
49461;BME280;35355;49.198;-0.368;2023-04-06T08:40:27;101125.13;;;13.34;69.39
49461;BME280;35355;49.198;-0.368;2023-04-06T08:42:55;101124.31;;;13.44;69.33
49461;BME280;35355;49.198;-0.368;2023-04-06T08:45:21;101117.75;;;13.55;69.35
49461;BME280;35355;49.198;-0.368;2023-04-06T08:47:53;101137.78;;;13.66;68.80
49461;BME280;35355;49.198;-0.368;2023-04-06T08:50:20;101131.22;;;13.72;68.65
49461;BME280;35355;49.198;-0.368;2023-04-06T08:52:47;101141.09;;;13.78;68.34
49461;BME280;35355;49.198;-0.368;2023-04-06T08:55:14;101131.47;;;13.86;68.18
49461;BME280;35355;49.198;-0.368;2023-04-06T08:57:40;101139.19;;;13.94;68.00
49461;BME280;35355;49.198;-0.368;2023-04-06T09:00:07;101139.19;;;14.04;67.83
49461;BME280;35355;49.198;-0.368;2023-04-06T09:02:38;101141.09;;;14.14;67.44
49461;BME280;35355;49.198;-0.368;2023-04-06T09:05:04;101139.44;;;14.18;66.77
49461;BME280;35355;49.198;-0.368;2023-04-06T09:07:29;101145.75;;;14.24;66.56
49461;BME280;35355;49.198;-0.368;2023-04-06T09:09:56;101141.88;;;14.30;66.30
49461;BME280;35355;49.198;-0.368;2023-04-06T09:12:25;101135.03;;;14.33;65.97
49461;BME280;35355;49.198;-0.368;2023-04-06T09:14:50;101144.88;;;14.39;65.67
49461;BME280;35355;49.198;-0.368;2023-04-06T09:17:32;101153.13;;;14.44;65.97
49461;BME280;35355;49.198;-0.368;2023-04-06T09:20:00;101150.38;;;14.54;65.30
49461;BME280;35355;49.198;-0.368;2023-04-06T09:22:35;101158.84;;;14.58;65.20
49461;BME280;35355;49.198;-0.368;2023-04-06T09:25:00;101150.66;;;14.63;64.60
49461;BME280;35355;49.198;-0.368;2023-04-06T09:27:34;101147.34;;;14.66;64.61
49461;BME280;35355;49.198;-0.368;2023-04-06T09:30:10;101154.72;;;14.76;64.85
49461;BME280;35355;49.198;-0.368;2023-04-06T09:32:51;101145.38;;;14.77;63.92
49461;BME280;35355;49.198;-0.368;2023-04-06T09:35:17;101149.22;;;14.76;63.11
49461;BME280;35355;49.198;-0.368;2023-04-06T09:37:46;101153.09;;;14.75;63.39
49461;BME280;35355;49.198;-0.368;2023-04-06T09:40:12;101144.28;;;14.78;63.15
49461;BME280;35355;49.198;-0.368;2023-04-06T09:42:41;101145.91;;;14.79;63.03
49461;BME280;35355;49.198;-0.368;2023-04-06T09:45:07;101157.72;;;14.85;62.84
49461;BME280;35355;49.198;-0.368;2023-04-06T09:47:35;101156.59;;;14.91;62.93
49461;BME280;35355;49.198;-0.368;2023-04-06T09:50:02;101154.06;;;15.00;62.59
49461;BME280;35355;49.198;-0.368;2023-04-06T09:52:40;101152.13;;;15.05;62.58
49461;BME280;35355;49.198;-0.368;2023-04-06T09:55:07;101155.69;;;15.11;61.41
49461;BME280;35355;49.198;-0.368;2023-04-06T09:57:49;101150.75;;;15.08;61.43
49461;BME280;35355;49.198;-0.368;2023-04-06T10:00:17;101165.06;;;15.05;60.47
49461;BME280;35355;49.198;-0.368;2023-04-06T10:02:59;101164.53;;;15.03;61.09
49461;BME280;35355;49.198;-0.368;2023-04-06T10:05:42;101166.41;;;15.13;60.84
49461;BME280;35355;49.198;-0.368;2023-04-06T10:08:11;101147.09;;;15.23;60.05
49461;BME280;35355;49.198;-0.368;2023-04-06T10:10:37;101153.66;;;15.32;59.57
49461;BME280;35355;49.198;-0.368;2023-04-06T10:13:07;101152.81;;;15.37;59.35
49461;BME280;35355;49.198;-0.368;2023-04-06T10:15:33;101151.75;;;15.33;58.20
49461;BME280;35355;49.198;-0.368;2023-04-06T10:17:59;101150.94;;;15.27;58.34
49461;BME280;35355;49.198;-0.368;2023-04-06T10:20:41;101153.41;;;15.23;58.93
49461;BME280;35355;49.198;-0.368;2023-04-06T10:23:12;101150.94;;;15.22;58.70
49461;BME280;35355;49.198;-0.368;2023-04-06T10:25:58;101141.38;;;15.14;59.20
49461;BME280;35355;49.198;-0.368;2023-04-06T10:28:24;101146.34;;;15.12;58.66
49461;BME280;35355;49.198;-0.368;2023-04-06T10:30:56;101147.16;;;15.13;58.97
49461;BME280;35355;49.198;-0.368;2023-04-06T10:33:22;101144.97;;;15.15;58.50
49461;BME280;35355;49.198;-0.368;2023-04-06T10:35:47;101152.94;;;15.16;58.54
49461;BME280;35355;49.198;-0.368;2023-04-06T10:38:13;101155.63;;;15.21;58.68
49461;BME280;35355;49.198;-0.368;2023-04-06T10:40:40;101150.66;;;15.29;58.74
49461;BME280;35355;49.198;-0.368;2023-04-06T10:45:38;101151.78;;;15.22;58.07
49461;BME280;35355;49.198;-0.368;2023-04-06T10:48:17;101153.16;;;15.20;58.76
49461;BME280;35355;49.198;-0.368;2023-04-06T10:50:48;101157.81;;;15.24;58.46
49461;BME280;35355;49.198;-0.368;2023-04-06T10:53:26;101151.75;;;15.27;58.59
49461;BME280;35355;49.198;-0.368;2023-04-06T10:55:54;101159.16;;;15.32;58.26
49461;BME280;35355;49.198;-0.368;2023-04-06T10:58:19;101148.44;;;15.31;58.33
49461;BME280;35355;49.198;-0.368;2023-04-06T11:00:49;101158.84;;;15.39;57.95
49461;BME280;35355;49.198;-0.368;2023-04-06T11:03:15;101158.31;;;15.37;57.35
49461;BME280;35355;49.198;-0.368;2023-04-06T11:05:48;101161.09;;;15.32;57.64
49461;BME280;35355;49.198;-0.368;2023-04-06T11:08:27;101157.81;;;15.24;57.90
49461;BME280;35355;49.198;-0.368;2023-04-06T11:11:04;101158.38;;;15.21;57.51
49461;BME280;35355;49.198;-0.368;2023-04-06T11:13:40;101164.47;;;15.13;57.55
49461;BME280;35355;49.198;-0.368;2023-04-06T11:16:06;101160.38;;;15.11;57.69
49461;BME280;35355;49.198;-0.368;2023-04-06T11:18:32;101165.25;;;15.19;58.02
49461;BME280;35355;49.198;-0.368;2023-04-06T11:20:57;101158.06;;;15.33;57.91
49461;BME280;35355;49.198;-0.368;2023-04-06T11:23:23;101160.44;;;15.50;57.61
49461;BME280;35355;49.198;-0.368;2023-04-06T11:25:52;101150.69;;;15.63;57.10
49461;BME280;35355;49.198;-0.368;2023-04-06T11:28:18;101155.91;;;15.70;56.65
49461;BME280;35355;49.198;-0.368;2023-04-06T11:30:45;101152.59;;;15.68;56.62
49461;BME280;35355;49.198;-0.368;2023-04-06T11:33:10;101155.97;;;15.59;56.44
49461;BME280;35355;49.198;-0.368;2023-04-06T11:35:37;101152.13;;;15.55;56.17
49461;BME280;35355;49.198;-0.368;2023-04-06T11:38:03;101143.88;;;15.55;56.03
49461;BME280;35355;49.198;-0.368;2023-04-06T11:40:29;101158.75;;;15.54;55.78
49461;BME280;35355;49.198;-0.368;2023-04-06T11:42:55;101152.13;;;15.55;55.61
49461;BME280;35355;49.198;-0.368;2023-04-06T11:45:22;101135.59;;;15.60;55.59
49461;BME280;35355;49.198;-0.368;2023-04-06T11:47:57;101146.03;;;15.64;56.01
49461;BME280;35355;49.198;-0.368;2023-04-06T11:50:24;101132.78;;;15.71;55.24
49461;BME280;35355;49.198;-0.368;2023-04-06T11:53:01;101142.66;;;15.72;56.06
49461;BME280;35355;49.198;-0.368;2023-04-06T11:55:27;101137.72;;;15.74;55.02
49461;BME280;35355;49.198;-0.368;2023-04-06T11:57:53;101143.75;;;15.76;55.59
49461;BME280;35355;49.198;-0.368;2023-04-06T12:00:18;101137.69;;;15.79;55.67
49461;BME280;35355;49.198;-0.368;2023-04-06T12:02:46;101143.16;;;15.84;55.45
49461;BME280;35355;49.198;-0.368;2023-04-06T12:05:11;101139.78;;;15.92;55.38
49461;BME280;35355;49.198;-0.368;2023-04-06T12:07:37;101142.75;;;16.01;55.03
49461;BME280;35355;49.198;-0.368;2023-04-06T12:10:03;101138.53;;;16.09;54.72
49461;BME280;35355;49.198;-0.368;2023-04-06T12:12:30;101143.44;;;16.17;54.61
49461;BME280;35355;49.198;-0.368;2023-04-06T12:14:55;101140.88;;;16.26;54.37
49461;BME280;35355;49.198;-0.368;2023-04-06T12:17:21;101138.91;;;16.31;54.11
49461;BME280;35355;49.198;-0.368;2023-04-06T12:19:46;101134.41;;;16.36;53.32
49461;BME280;35355;49.198;-0.368;2023-04-06T12:22:12;101130.28;;;16.38;53.25
49461;BME280;35355;49.198;-0.368;2023-04-06T12:24:38;101131.03;;;16.44;53.27
49461;BME280;35355;49.198;-0.368;2023-04-06T12:27:03;101128.78;;;16.51;53.45
49461;BME280;35355;49.198;-0.368;2023-04-06T12:29:29;101139.19;;;16.54;53.04
49461;BME280;35355;49.198;-0.368;2023-04-06T12:31:54;101136.44;;;16.54;52.49
49461;BME280;35355;49.198;-0.368;2023-04-06T12:34:20;101146.66;;;16.54;52.98
49461;BME280;35355;49.198;-0.368;2023-04-06T12:36:45;101147.69;;;16.58;52.97
49461;BME280;35355;49.198;-0.368;2023-04-06T12:39:11;101136.44;;;16.54;52.43